sensor_id;sensor_type;location;lat;lon;timestamp;pressure;altitude;pressure_sealevel;temperature;humidity
21824;BME280;11074;48.596;9.238;2023-09-18T00:00:05;97632.31;;;19.83;88.10
21824;BME280;11074;48.596;9.238;2023-09-18T00:02:36;97639.44;;;19.96;87.74
21824;BME280;11074;48.596;9.238;2023-09-18T00:05:02;97616.19;;;19.86;87.98
21824;BME280;11074;48.596;9.238;2023-09-18T00:07:28;97622.75;;;19.85;88.56
21824;BME280;11074;48.596;9.238;2023-09-18T00:09:54;97623.44;;;19.74;88.50
21824;BME280;11074;48.596;9.238;2023-09-18T00:12:19;97624.72;;;19.68;88.63
21824;BME280;11074;48.596;9.238;2023-09-18T00:14:49;97622.25;;;19.92;87.98
21824;BME280;11074;48.596;9.238;2023-09-18T00:17:15;97605.03;;;20.17;86.48
21824;BME280;11074;48.596;9.238;2023-09-18T00:19:43;97601.19;;;20.27;86.37
21824;BME280;11074;48.596;9.238;2023-09-18T00:22:09;97597.22;;;20.16;86.24
21824;BME280;11074;48.596;9.238;2023-09-18T00:24:34;97595.31;;;20.25;86.32
21824;BME280;11074;48.596;9.238;2023-09-18T00:27:00;97591.94;;;20.19;86.47
21824;BME280;11074;48.596;9.238;2023-09-18T00:29:26;97604.19;;;20.34;86.06
21824;BME280;11074;48.596;9.238;2023-09-18T00:31:51;97602.91;;;20.31;85.57
21824;BME280;11074;48.596;9.238;2023-09-18T00:34:17;97601.47;;;20.34;85.59
21824;BME280;11074;48.596;9.238;2023-09-18T00:36:42;97602.13;;;20.31;85.71
21824;BME280;11074;48.596;9.238;2023-09-18T00:39:08;97607.72;;;20.26;86.08
21824;BME280;11074;48.596;9.238;2023-09-18T00:41:34;97610.25;;;20.31;86.22
21824;BME280;11074;48.596;9.238;2023-09-18T00:43:59;97594.56;;;20.36;86.22
21824;BME280;11074;48.596;9.238;2023-09-18T00:46:25;97606.44;;;20.32;86.14
21824;BME280;11074;48.596;9.238;2023-09-18T00:48:53;97606.78;;;20.30;86.23
21824;BME280;11074;48.596;9.238;2023-09-18T00:51:19;97594.66;;;20.28;86.44
21824;BME280;11074;48.596;9.238;2023-09-18T00:53:48;97594.00;;;19.93;87.91
21824;BME280;11074;48.596;9.238;2023-09-18T00:56:15;97599.00;;;19.82;89.25
21824;BME280;11074;48.596;9.238;2023-09-18T00:58:41;97594.97;;;19.88;89.16
21824;BME280;11074;48.596;9.238;2023-09-18T01:01:08;97604.13;;;19.75;89.65
21824;BME280;11074;48.596;9.238;2023-09-18T01:03:34;97610.19;;;19.72;89.78
21824;BME280;11074;48.596;9.238;2023-09-18T01:06:00;97611.59;;;19.78;88.99
21824;BME280;11074;48.596;9.238;2023-09-18T01:08:25;97616.19;;;19.86;87.89
21824;BME280;11074;48.596;9.238;2023-09-18T01:11:05;97604.50;;;19.57;89.68
21824;BME280;11074;48.596;9.238;2023-09-18T01:13:45;97610.75;;;19.49;90.56
21824;BME280;11074;48.596;9.238;2023-09-18T01:16:42;97616.03;;;19.45;90.85
21824;BME280;11074;48.596;9.238;2023-09-18T01:19:35;97614.59;;;19.48;90.80
21824;BME280;11074;48.596;9.238;2023-09-18T01:22:04;97599.72;;;19.54;90.76
21824;BME280;11074;48.596;9.238;2023-09-18T01:24:35;97610.09;;;19.52;90.82
21824;BME280;11074;48.596;9.238;2023-09-18T01:27:02;97609.88;;;19.74;89.85
21824;BME280;11074;48.596;9.238;2023-09-18T01:29:30;97610.88;;;19.61;90.43
21824;BME280;11074;48.596;9.238;2023-09-18T01:31:56;97614.94;;;19.84;89.26
21824;BME280;11074;48.596;9.238;2023-09-18T01:34:32;97622.63;;;19.73;89.94
21824;BME280;11074;48.596;9.238;2023-09-18T01:37:00;97603.63;;;19.82;89.00
21824;BME280;11074;48.596;9.238;2023-09-18T01:39:28;97611.28;;;19.80;89.55
21824;BME280;11074;48.596;9.238;2023-09-18T01:42:01;97608.88;;;19.78;89.45
21824;BME280;11074;48.596;9.238;2023-09-18T01:44:28;97642.44;;;19.74;89.85
21824;BME280;11074;48.596;9.238;2023-09-18T01:46:58;97697.13;;;19.93;88.71
21824;BME280;11074;48.596;9.238;2023-09-18T01:49:38;97668.25;;;20.18;87.29
21824;BME280;11074;48.596;9.238;2023-09-18T01:52:06;97624.75;;;20.43;86.81
21824;BME280;11074;48.596;9.238;2023-09-18T01:54:33;97593.13;;;20.39;88.10
21824;BME280;11074;48.596;9.238;2023-09-18T01:57:00;97622.72;;;20.32;90.45
21824;BME280;11074;48.596;9.238;2023-09-18T01:59:27;97587.78;;;20.51;89.88
21824;BME280;11074;48.596;9.238;2023-09-18T02:01:53;97585.66;;;20.57;90.38
21824;BME280;11074;48.596;9.238;2023-09-18T02:04:20;97579.84;;;20.67;90.17
21824;BME280;11074;48.596;9.238;2023-09-18T02:06:48;97563.66;;;20.49;91.06
21824;BME280;11074;48.596;9.238;2023-09-18T02:09:14;97554.44;;;20.42;92.67
21824;BME280;11074;48.596;9.238;2023-09-18T02:11:43;97567.91;;;20.38;92.41
21824;BME280;11074;48.596;9.238;2023-09-18T02:14:10;97563.13;;;20.35;91.94
21824;BME280;11074;48.596;9.238;2023-09-18T02:16:39;97567.09;;;20.38;92.12
21824;BME280;11074;48.596;9.238;2023-09-18T02:19:09;97561.69;;;20.09;94.31
21824;BME280;11074;48.596;9.238;2023-09-18T02:21:36;97551.50;;;19.97;96.01
21824;BME280;11074;48.596;9.238;2023-09-18T02:24:03;97545.94;;;19.93;95.11
21824;BME280;11074;48.596;9.238;2023-09-18T02:26:29;97544.84;;;19.86;94.98
21824;BME280;11074;48.596;9.238;2023-09-18T02:29:02;97532.31;;;19.73;96.27
21824;BME280;11074;48.596;9.238;2023-09-18T02:31:28;97539.34;;;19.74;95.03
21824;BME280;11074;48.596;9.238;2023-09-18T02:33:53;97533.75;;;19.79;94.81
21824;BME280;11074;48.596;9.238;2023-09-18T02:36:19;97533.03;;;19.90;93.86
21824;BME280;11074;48.596;9.238;2023-09-18T02:38:45;97528.75;;;20.10;93.83
21824;BME280;11074;48.596;9.238;2023-09-18T02:41:10;97526.59;;;20.04;94.42
21824;BME280;11074;48.596;9.238;2023-09-18T02:43:36;97518.84;;;20.14;93.36
21824;BME280;11074;48.596;9.238;2023-09-18T02:46:05;97532.09;;;20.16;93.43
21824;BME280;11074;48.596;9.238;2023-09-18T02:48:32;97533.03;;;19.61;95.86
21824;BME280;11074;48.596;9.238;2023-09-18T02:51:00;97541.81;;;19.58;97.52
21824;BME280;11074;48.596;9.238;2023-09-18T02:53:26;97547.44;;;19.45;98.21
21824;BME280;11074;48.596;9.238;2023-09-18T02:55:54;97584.75;;;19.48;98.13
21824;BME280;11074;48.596;9.238;2023-09-18T02:58:21;97583.41;;;19.62;94.51
21824;BME280;11074;48.596;9.238;2023-09-18T03:00:50;97554.25;;;19.88;91.98
21824;BME280;11074;48.596;9.238;2023-09-18T03:03:17;97583.63;;;19.95;92.19
21824;BME280;11074;48.596;9.238;2023-09-18T03:05:44;97575.06;;;20.14;90.97
21824;BME280;11074;48.596;9.238;2023-09-18T03:08:11;97573.13;;;20.14;89.66
21824;BME280;11074;48.596;9.238;2023-09-18T03:10:42;97566.88;;;20.22;89.49
21824;BME280;11074;48.596;9.238;2023-09-18T03:13:10;97557.13;;;20.21;89.55
21824;BME280;11074;48.596;9.238;2023-09-18T03:15:37;97556.09;;;20.34;89.21
21824;BME280;11074;48.596;9.238;2023-09-18T03:18:05;97558.03;;;20.34;89.23
21824;BME280;11074;48.596;9.238;2023-09-18T03:20:33;97556.16;;;20.17;90.89
21824;BME280;11074;48.596;9.238;2023-09-18T03:23:01;97553.19;;;19.81;93.70
21824;BME280;11074;48.596;9.238;2023-09-18T03:25:27;97545.22;;;19.29;95.97
21824;BME280;11074;48.596;9.238;2023-09-18T03:27:55;97564.69;;;19.31;96.65
21824;BME280;11074;48.596;9.238;2023-09-18T03:30:22;97557.34;;;19.41;95.12
21824;BME280;11074;48.596;9.238;2023-09-18T03:32:52;97570.06;;;19.49;95.59
21824;BME280;11074;48.596;9.238;2023-09-18T03:35:20;97576.78;;;19.34;96.15
21824;BME280;11074;48.596;9.238;2023-09-18T03:37:52;97584.28;;;19.28;96.90
21824;BME280;11074;48.596;9.238;2023-09-18T03:40:22;97611.41;;;19.28;95.47
21824;BME280;11074;48.596;9.238;2023-09-18T03:42:48;97618.91;;;19.31;94.76
21824;BME280;11074;48.596;9.238;2023-09-18T03:45:17;97626.88;;;19.45;93.59
21824;BME280;11074;48.596;9.238;2023-09-18T03:47:44;97642.00;;;19.38;93.97
21824;BME280;11074;48.596;9.238;2023-09-18T03:50:11;97663.88;;;19.41;93.73
21824;BME280;11074;48.596;9.238;2023-09-18T03:52:39;97670.72;;;19.47;93.03
21824;BME280;11074;48.596;9.238;2023-09-18T03:55:06;97670.84;;;19.68;91.55
21824;BME280;11074;48.596;9.238;2023-09-18T03:57:32;97661.34;;;19.91;89.05
21824;BME280;11074;48.596;9.238;2023-09-18T03:59:58;97652.59;;;20.23;87.00
21824;BME280;11074;48.596;9.238;2023-09-18T04:02:25;97664.09;;;20.20;87.00
21824;BME280;11074;48.596;9.238;2023-09-18T04:04:53;97670.97;;;20.18;86.73
21824;BME280;11074;48.596;9.238;2023-09-18T04:07:20;97660.28;;;20.21;86.85
21824;BME280;11074;48.596;9.238;2023-09-18T04:09:46;97660.91;;;20.27;86.20
21824;BME280;11074;48.596;9.238;2023-09-18T04:12:12;97662.38;;;20.16;87.03
21824;BME280;11074;48.596;9.238;2023-09-18T04:14:38;97651.25;;;20.09;87.75
21824;BME280;11074;48.596;9.238;2023-09-18T04:17:04;97638.75;;;20.25;88.00
21824;BME280;11074;48.596;9.238;2023-09-18T04:19:30;97635.03;;;20.29;88.35
21824;BME280;11074;48.596;9.238;2023-09-18T04:21:56;97627.22;;;20.28;88.34
21824;BME280;11074;48.596;9.238;2023-09-18T04:24:22;97627.88;;;20.25;89.23
21824;BME280;11074;48.596;9.238;2023-09-18T04:26:48;97623.09;;;20.13;90.21
21824;BME280;11074;48.596;9.238;2023-09-18T04:29:18;97621.00;;;20.19;89.86
21824;BME280;11074;48.596;9.238;2023-09-18T04:31:45;97611.59;;;20.16;90.21
21824;BME280;11074;48.596;9.238;2023-09-18T04:34:11;97604.69;;;19.98;91.64
21824;BME280;11074;48.596;9.238;2023-09-18T04:36:37;97595.34;;;19.70;92.96
21824;BME280;11074;48.596;9.238;2023-09-18T04:39:04;97595.53;;;19.65;94.36
21824;BME280;11074;48.596;9.238;2023-09-18T04:41:31;97582.28;;;19.72;92.42
21824;BME280;11074;48.596;9.238;2023-09-18T04:43:57;97604.69;;;19.43;93.56
21824;BME280;11074;48.596;9.238;2023-09-18T04:46:23;97596.00;;;19.67;91.51
21824;BME280;11074;48.596;9.238;2023-09-18T04:48:50;97580.03;;;19.74;90.92
21824;BME280;11074;48.596;9.238;2023-09-18T04:51:16;97581.22;;;19.93;90.04
21824;BME280;11074;48.596;9.238;2023-09-18T04:53:42;97565.53;;;19.99;90.06
21824;BME280;11074;48.596;9.238;2023-09-18T04:56:08;97580.53;;;20.05;90.44
21824;BME280;11074;48.596;9.238;2023-09-18T04:58:36;97580.53;;;19.67;91.82
21824;BME280;11074;48.596;9.238;2023-09-18T05:01:03;97587.16;;;19.87;91.13
21824;BME280;11074;48.596;9.238;2023-09-18T05:03:33;97601.94;;;19.60;92.51
21824;BME280;11074;48.596;9.238;2023-09-18T05:05:59;97596.72;;;19.47;93.00
21824;BME280;11074;48.596;9.238;2023-09-18T05:08:25;97591.25;;;19.64;92.40
21824;BME280;11074;48.596;9.238;2023-09-18T05:10:51;97603.84;;;19.60;92.50
21824;BME280;11074;48.596;9.238;2023-09-18T05:13:16;97600.13;;;19.73;91.97
21824;BME280;11074;48.596;9.238;2023-09-18T05:15:42;97591.34;;;19.76;91.42
21824;BME280;11074;48.596;9.238;2023-09-18T05:18:08;97579.34;;;19.85;91.71
21824;BME280;11074;48.596;9.238;2023-09-18T05:20:34;97576.81;;;19.80;91.53
21824;BME280;11074;48.596;9.238;2023-09-18T05:23:00;97583.75;;;19.61;92.98
21824;BME280;11074;48.596;9.238;2023-09-18T05:25:29;97598.31;;;19.48;93.68
21824;BME280;11074;48.596;9.238;2023-09-18T05:27:59;97592.28;;;19.16;96.31
21824;BME280;11074;48.596;9.238;2023-09-18T05:30:33;97595.78;;;19.43;94.93
21824;BME280;11074;48.596;9.238;2023-09-18T05:33:02;97596.06;;;19.50;94.24
21824;BME280;11074;48.596;9.238;2023-09-18T05:35:40;97598.59;;;19.55;94.08
21824;BME280;11074;48.596;9.238;2023-09-18T05:38:06;97593.00;;;19.60;93.54
21824;BME280;11074;48.596;9.238;2023-09-18T05:40:32;97606.09;;;19.58;93.86
21824;BME280;11074;48.596;9.238;2023-09-18T05:42:58;97602.38;;;19.71;92.23
21824;BME280;11074;48.596;9.238;2023-09-18T05:45:24;97615.22;;;19.36;94.62
21824;BME280;11074;48.596;9.238;2023-09-18T05:47:50;97611.09;;;19.39;94.63
21824;BME280;11074;48.596;9.238;2023-09-18T05:50:17;97595.44;;;19.44;94.56
21824;BME280;11074;48.596;9.238;2023-09-18T05:52:44;97605.63;;;19.56;94.45
21824;BME280;11074;48.596;9.238;2023-09-18T05:55:10;97598.13;;;19.35;94.57
21824;BME280;11074;48.596;9.238;2023-09-18T05:57:37;97602.44;;;19.54;94.43
21824;BME280;11074;48.596;9.238;2023-09-18T06:00:03;97585.81;;;19.64;93.79
21824;BME280;11074;48.596;9.238;2023-09-18T06:02:29;97585.34;;;19.62;93.83
21824;BME280;11074;48.596;9.238;2023-09-18T06:04:56;97595.28;;;19.49;95.19
21824;BME280;11074;48.596;9.238;2023-09-18T06:07:27;97587.41;;;19.65;93.84
21824;BME280;11074;48.596;9.238;2023-09-18T06:09:53;97590.09;;;19.73;93.55
21824;BME280;11074;48.596;9.238;2023-09-18T06:12:19;97597.31;;;19.61;94.64
21824;BME280;11074;48.596;9.238;2023-09-18T06:14:45;97594.72;;;19.73;93.64
21824;BME280;11074;48.596;9.238;2023-09-18T06:17:12;97593.41;;;19.79;93.86
21824;BME280;11074;48.596;9.238;2023-09-18T06:19:38;97589.88;;;19.87;94.06
21824;BME280;11074;48.596;9.238;2023-09-18T06:22:04;97585.53;;;19.94;93.62
21824;BME280;11074;48.596;9.238;2023-09-18T06:24:30;97569.09;;;19.91;93.48
21824;BME280;11074;48.596;9.238;2023-09-18T06:26:55;97581.69;;;19.95;93.86
21824;BME280;11074;48.596;9.238;2023-09-18T06:29:21;97575.16;;;19.88;94.57
21824;BME280;11074;48.596;9.238;2023-09-18T06:31:47;97585.81;;;19.64;94.57
21824;BME280;11074;48.596;9.238;2023-09-18T06:34:12;97596.69;;;19.55;96.41
21824;BME280;11074;48.596;9.238;2023-09-18T06:36:38;97583.13;;;19.55;97.48
21824;BME280;11074;48.596;9.238;2023-09-18T06:39:04;97588.03;;;19.70;96.74
21824;BME280;11074;48.596;9.238;2023-09-18T06:41:29;97596.19;;;19.62;97.88
21824;BME280;11074;48.596;9.238;2023-09-18T06:43:55;97599.53;;;19.59;97.60
21824;BME280;11074;48.596;9.238;2023-09-18T06:46:22;97606.72;;;19.63;97.72
21824;BME280;11074;48.596;9.238;2023-09-18T06:48:48;97612.50;;;19.53;99.08
21824;BME280;11074;48.596;9.238;2023-09-18T06:51:16;97620.31;;;19.46;98.83
21824;BME280;11074;48.596;9.238;2023-09-18T06:53:43;97619.69;;;19.41;99.42
21824;BME280;11074;48.596;9.238;2023-09-18T06:56:09;97629.38;;;19.59;98.90
21824;BME280;11074;48.596;9.238;2023-09-18T06:58:35;97620.56;;;19.70;98.62
21824;BME280;11074;48.596;9.238;2023-09-18T07:01:01;97616.72;;;19.80;98.18
21824;BME280;11074;48.596;9.238;2023-09-18T07:03:26;97610.63;;;19.83;98.47
21824;BME280;11074;48.596;9.238;2023-09-18T07:05:52;97613.00;;;19.93;98.66
21824;BME280;11074;48.596;9.238;2023-09-18T07:08:18;97606.63;;;19.89;99.85
21824;BME280;11074;48.596;9.238;2023-09-18T07:10:50;97622.09;;;19.88;100.00
21824;BME280;11074;48.596;9.238;2023-09-18T07:13:16;97618.09;;;19.94;98.54
21824;BME280;11074;48.596;9.238;2023-09-18T07:15:41;97610.53;;;20.09;97.78
21824;BME280;11074;48.596;9.238;2023-09-18T07:18:07;97611.59;;;20.25;97.80
21824;BME280;11074;48.596;9.238;2023-09-18T07:20:33;97607.28;;;20.15;97.61
21824;BME280;11074;48.596;9.238;2023-09-18T07:22:59;97611.59;;;20.25;96.19
21824;BME280;11074;48.596;9.238;2023-09-18T07:25:24;97618.41;;;20.31;95.81
21824;BME280;11074;48.596;9.238;2023-09-18T07:27:50;97635.78;;;20.38;96.12
21824;BME280;11074;48.596;9.238;2023-09-18T07:30:15;97634.25;;;20.49;94.57
21824;BME280;11074;48.596;9.238;2023-09-18T07:32:43;97642.41;;;20.49;94.80
21824;BME280;11074;48.596;9.238;2023-09-18T07:35:10;97638.78;;;20.45;94.35
21824;BME280;11074;48.596;9.238;2023-09-18T07:37:36;97641.22;;;20.38;94.93
21824;BME280;11074;48.596;9.238;2023-09-18T07:40:07;97639.88;;;20.44;94.34
21824;BME280;11074;48.596;9.238;2023-09-18T07:42:33;97653.44;;;20.53;93.74
21824;BME280;11074;48.596;9.238;2023-09-18T07:44:59;97650.84;;;20.57;93.19
21824;BME280;11074;48.596;9.238;2023-09-18T07:47:25;97660.63;;;20.78;92.44
21824;BME280;11074;48.596;9.238;2023-09-18T07:49:51;97667.25;;;20.89;91.27
21824;BME280;11074;48.596;9.238;2023-09-18T07:52:17;97671.81;;;20.97;89.52
21824;BME280;11074;48.596;9.238;2023-09-18T07:54:43;97677.50;;;21.13;88.76
21824;BME280;11074;48.596;9.238;2023-09-18T07:57:09;97681.53;;;21.28;88.34
21824;BME280;11074;48.596;9.238;2023-09-18T07:59:38;97685.84;;;21.29;85.95
21824;BME280;11074;48.596;9.238;2023-09-18T08:02:08;97696.63;;;21.37;85.55
21824;BME280;11074;48.596;9.238;2023-09-18T08:04:35;97692.81;;;21.50;84.21
21824;BME280;11074;48.596;9.238;2023-09-18T08:07:01;97699.22;;;21.54;84.04
21824;BME280;11074;48.596;9.238;2023-09-18T08:09:26;97694.34;;;21.60;84.54
21824;BME280;11074;48.596;9.238;2023-09-18T08:11:55;97709.50;;;21.49;84.94
21824;BME280;11074;48.596;9.238;2023-09-18T08:14:22;97722.09;;;21.53;84.35
21824;BME280;11074;48.596;9.238;2023-09-18T08:16:48;97738.69;;;21.60;83.23
21824;BME280;11074;48.596;9.238;2023-09-18T08:19:16;97734.22;;;21.56;83.46
21824;BME280;11074;48.596;9.238;2023-09-18T08:21:42;97730.63;;;21.64;82.50
21824;BME280;11074;48.596;9.238;2023-09-18T08:24:08;97749.38;;;21.65;82.85
21824;BME280;11074;48.596;9.238;2023-09-18T08:26:34;97742.78;;;21.66;81.96
21824;BME280;11074;48.596;9.238;2023-09-18T08:28:59;97752.28;;;21.60;81.61
21824;BME280;11074;48.596;9.238;2023-09-18T08:31:25;97747.97;;;21.59;80.74
21824;BME280;11074;48.596;9.238;2023-09-18T08:33:53;97750.31;;;21.49;80.43
21824;BME280;11074;48.596;9.238;2023-09-18T08:36:18;97752.78;;;21.42;81.44
21824;BME280;11074;48.596;9.238;2023-09-18T08:38:44;97756.00;;;21.35;82.65
21824;BME280;11074;48.596;9.238;2023-09-18T08:41:12;97749.16;;;21.08;84.67
21824;BME280;11074;48.596;9.238;2023-09-18T08:43:42;97757.81;;;21.02;86.19
21824;BME280;11074;48.596;9.238;2023-09-18T08:46:08;97755.47;;;20.92;87.97
21824;BME280;11074;48.596;9.238;2023-09-18T08:48:35;97775.34;;;20.84;89.94
21824;BME280;11074;48.596;9.238;2023-09-18T08:51:03;97787.91;;;20.68;90.59
21824;BME280;11074;48.596;9.238;2023-09-18T08:53:35;97784.47;;;20.41;92.59
21824;BME280;11074;48.596;9.238;2023-09-18T08:56:04;97773.81;;;20.19;95.18
21824;BME280;11074;48.596;9.238;2023-09-18T08:58:37;97778.94;;;20.12;96.53
21824;BME280;11074;48.596;9.238;2023-09-18T09:01:06;97753.59;;;20.00;95.35
21824;BME280;11074;48.596;9.238;2023-09-18T09:03:40;97751.69;;;20.00;95.06
21824;BME280;11074;48.596;9.238;2023-09-18T09:06:08;97746.88;;;19.97;95.91
21824;BME280;11074;48.596;9.238;2023-09-18T09:08:36;97753.75;;;19.94;95.74
21824;BME280;11074;48.596;9.238;2023-09-18T09:11:03;97754.25;;;19.88;96.65
21824;BME280;11074;48.596;9.238;2023-09-18T09:13:29;97745.34;;;19.70;98.31
21824;BME280;11074;48.596;9.238;2023-09-18T09:15:58;97749.31;;;19.90;96.40
21824;BME280;11074;48.596;9.238;2023-09-18T09:18:29;97752.81;;;19.90;96.38
21824;BME280;11074;48.596;9.238;2023-09-18T09:21:03;97763.03;;;19.85;97.85
21824;BME280;11074;48.596;9.238;2023-09-18T09:23:49;97757.75;;;19.97;97.06
21824;BME280;11074;48.596;9.238;2023-09-18T09:26:20;97761.69;;;20.17;97.31
21824;BME280;11074;48.596;9.238;2023-09-18T09:28:47;97756.25;;;20.25;97.52
21824;BME280;11074;48.596;9.238;2023-09-18T09:31:28;97725.72;;;20.37;97.40
21824;BME280;11074;48.596;9.238;2023-09-18T09:33:55;97716.28;;;20.43;97.19
21824;BME280;11074;48.596;9.238;2023-09-18T09:36:24;97720.44;;;20.40;97.98
21824;BME280;11074;48.596;9.238;2023-09-18T09:38:57;97716.31;;;20.26;97.04
21824;BME280;11074;48.596;9.238;2023-09-18T09:41:26;97720.66;;;20.18;97.95
21824;BME280;11074;48.596;9.238;2023-09-18T09:43:53;97707.03;;;20.35;98.01
21824;BME280;11074;48.596;9.238;2023-09-18T09:46:21;97721.75;;;20.26;99.84
21824;BME280;11074;48.596;9.238;2023-09-18T09:49:00;97734.38;;;20.22;98.51
21824;BME280;11074;48.596;9.238;2023-09-18T09:51:27;97755.28;;;20.21;97.22
21824;BME280;11074;48.596;9.238;2023-09-18T09:53:54;97763.41;;;20.38;96.24
21824;BME280;11074;48.596;9.238;2023-09-18T09:56:20;97770.91;;;20.41;96.21
21824;BME280;11074;48.596;9.238;2023-09-18T09:59:06;97787.31;;;20.53;94.99
21824;BME280;11074;48.596;9.238;2023-09-18T10:01:35;97778.88;;;20.46;96.24
21824;BME280;11074;48.596;9.238;2023-09-18T10:04:07;97780.28;;;20.52;96.93
21824;BME280;11074;48.596;9.238;2023-09-18T10:06:36;97779.78;;;20.59;96.15
21824;BME280;11074;48.596;9.238;2023-09-18T10:09:04;97780.28;;;20.52;96.47
21824;BME280;11074;48.596;9.238;2023-09-18T10:11:34;97781.75;;;20.41;98.14
21824;BME280;11074;48.596;9.238;2023-09-18T10:14:20;97776.66;;;20.40;97.69
21824;BME280;11074;48.596;9.238;2023-09-18T10:16:56;97768.06;;;20.38;96.72
21824;BME280;11074;48.596;9.238;2023-09-18T10:19:34;97756.19;;;20.51;96.34
21824;BME280;11074;48.596;9.238;2023-09-18T10:22:25;97754.72;;;20.53;97.27
21824;BME280;11074;48.596;9.238;2023-09-18T10:25:06;97767.06;;;20.42;98.91
21824;BME280;11074;48.596;9.238;2023-09-18T10:27:33;97797.59;;;20.39;100.00
21824;BME280;11074;48.596;9.238;2023-09-18T10:30:01;97809.09;;;20.36;98.06
21824;BME280;11074;48.596;9.238;2023-09-18T10:32:30;97800.00;;;20.41;98.39
21824;BME280;11074;48.596;9.238;2023-09-18T10:34:58;97805.44;;;20.41;97.48
21824;BME280;11074;48.596;9.238;2023-09-18T10:37:27;97805.44;;;20.41;97.84
21824;BME280;11074;48.596;9.238;2023-09-18T10:39:58;97804.97;;;20.30;97.80
21824;BME280;11074;48.596;9.238;2023-09-18T10:42:24;97790.78;;;20.25;97.52
21824;BME280;11074;48.596;9.238;2023-09-18T10:44:51;97787.19;;;20.41;97.98
21824;BME280;11074;48.596;9.238;2023-09-18T10:47:18;97788.75;;;20.51;97.69
21824;BME280;11074;48.596;9.238;2023-09-18T10:49:44;97794.84;;;20.48;98.64
21824;BME280;11074;48.596;9.238;2023-09-18T10:52:13;97802.38;;;20.42;98.91
21824;BME280;11074;48.596;9.238;2023-09-18T10:54:39;97797.75;;;20.43;99.18
21824;BME280;11074;48.596;9.238;2023-09-18T10:57:06;97796.16;;;20.33;100.00
21824;BME280;11074;48.596;9.238;2023-09-18T10:59:31;97792.97;;;20.31;100.00
21824;BME280;11074;48.596;9.238;2023-09-18T11:02:03;97797.78;;;20.26;100.00
21824;BME280;11074;48.596;9.238;2023-09-18T11:04:32;97796.00;;;20.21;100.00
21824;BME280;11074;48.596;9.238;2023-09-18T11:09:30;97792.34;;;20.26;100.00
21824;BME280;11074;48.596;9.238;2023-09-18T11:12:03;97794.56;;;20.32;100.00
21824;BME280;11074;48.596;9.238;2023-09-18T11:14:50;97798.41;;;20.31;100.00
21824;BME280;11074;48.596;9.238;2023-09-18T11:17:35;97787.06;;;20.29;100.00
21824;BME280;11074;48.596;9.238;2023-09-18T11:20:18;97783.41;;;20.25;100.00
21824;BME280;11074;48.596;9.238;2023-09-18T11:23:16;97793.75;;;20.23;100.00
21824;BME280;11074;48.596;9.238;2023-09-18T11:25:44;97791.38;;;20.22;100.00
21824;BME280;11074;48.596;9.238;2023-09-18T11:28:23;97789.78;;;20.29;100.00
21824;BME280;11074;48.596;9.238;2023-09-18T11:30:57;97780.53;;;20.30;100.00
21824;BME280;11074;48.596;9.238;2023-09-18T11:33:39;97770.31;;;20.27;100.00
21824;BME280;11074;48.596;9.238;2023-09-18T11:36:36;97781.31;;;20.31;100.00
21824;BME280;11074;48.596;9.238;2023-09-18T11:39:02;97778.75;;;20.34;100.00
21824;BME280;11074;48.596;9.238;2023-09-18T11:41:33;97778.56;;;20.39;100.00
21824;BME280;11074;48.596;9.238;2023-09-18T11:46:44;97785.16;;;20.38;100.00
21824;BME280;11074;48.596;9.238;2023-09-18T11:49:14;97792.47;;;20.46;100.00
21824;BME280;11074;48.596;9.238;2023-09-18T11:51:41;97781.19;;;20.27;100.00
21824;BME280;11074;48.596;9.238;2023-09-18T11:54:08;97770.00;;;20.29;99.35
21824;BME280;11074;48.596;9.238;2023-09-18T11:56:34;97779.03;;;20.41;100.00
21824;BME280;11074;48.596;9.238;2023-09-18T11:59:00;97786.25;;;20.37;99.21
21824;BME280;11074;48.596;9.238;2023-09-18T12:01:31;97790.88;;;20.37;98.27
21824;BME280;11074;48.596;9.238;2023-09-18T12:04:04;97788.97;;;20.37;98.92
21824;BME280;11074;48.596;9.238;2023-09-18T12:06:40;97803.19;;;20.43;100.00
21824;BME280;11074;48.596;9.238;2023-09-18T12:09:07;97790.22;;;20.48;100.00
21824;BME280;11074;48.596;9.238;2023-09-18T12:11:34;97787.63;;;20.52;98.14
21824;BME280;11074;48.596;9.238;2023-09-18T12:14:05;97779.19;;;20.45;97.41
21824;BME280;11074;48.596;9.238;2023-09-18T12:16:37;97760.63;;;20.55;97.62
21824;BME280;11074;48.596;9.238;2023-09-18T12:19:06;97753.59;;;20.54;97.39
21824;BME280;11074;48.596;9.238;2023-09-18T12:21:32;97739.69;;;20.56;96.71
21824;BME280;11074;48.596;9.238;2023-09-18T12:23:58;97747.69;;;20.52;97.42
21824;BME280;11074;48.596;9.238;2023-09-18T12:26:25;97726.47;;;20.46;95.94
21824;BME280;11074;48.596;9.238;2023-09-18T12:28:51;97731.69;;;20.60;93.98
21824;BME280;11074;48.596;9.238;2023-09-18T12:31:17;97737.75;;;20.65;95.98
21824;BME280;11074;48.596;9.238;2023-09-18T12:33:44;97736.81;;;20.82;94.98
21824;BME280;11074;48.596;9.238;2023-09-18T12:36:10;97736.44;;;20.92;93.32
21824;BME280;11074;48.596;9.238;2023-09-18T12:38:37;97741.22;;;20.95;91.36
21824;BME280;11074;48.596;9.238;2023-09-18T12:41:04;97754.75;;;21.12;94.02
21824;BME280;11074;48.596;9.238;2023-09-18T12:43:44;97757.72;;;21.19;93.35
21824;BME280;11074;48.596;9.238;2023-09-18T12:46:11;97746.00;;;21.27;91.85
21824;BME280;11074;48.596;9.238;2023-09-18T12:48:38;97753.50;;;21.30;91.39
21824;BME280;11074;48.596;9.238;2023-09-18T12:51:07;97750.25;;;21.37;87.76
21824;BME280;11074;48.596;9.238;2023-09-18T12:53:33;97739.41;;;21.49;88.34
21824;BME280;11074;48.596;9.238;2023-09-18T12:56:11;97735.84;;;21.57;86.04
21824;BME280;11074;48.596;9.238;2023-09-18T12:58:41;97747.69;;;21.73;85.79
21824;BME280;11074;48.596;9.238;2023-09-18T13:01:10;97751.06;;;21.91;84.83
21824;BME280;11074;48.596;9.238;2023-09-18T13:03:46;97734.00;;;21.82;84.08
21824;BME280;11074;48.596;9.238;2023-09-18T13:06:17;97718.97;;;21.96;85.30
21824;BME280;11074;48.596;9.238;2023-09-18T13:08:43;97729.88;;;21.96;85.59
21824;BME280;11074;48.596;9.238;2023-09-18T13:11:09;97719.34;;;22.07;83.73